Time;durP1;ratioP1;P1;durP2;ratioP2;P2;SDS_P1;SDS_P2;PMS_P1;PMS_P2;Temp;Humidity;BMP_temperature;BMP_pressure;BME280_temperature;BME280_humidity;BME280_pressure;Samples;Min_cycle;Max_cycle;Signal;HPM_P1;HPM_P2
2023/01/05 00:01:39;;;;;;;10.87;2.70;;;9.60;99.90;;;;;;4956063;28;20235;-58
2023/01/05 00:04:09;;;;;;;14.40;2.33;;;9.70;99.90;;;;;;4956898;28;20638;-58
2023/01/05 00:06:38;;;;;;;14.70;2.93;;;9.60;99.90;;;;;;4957173;28;20228;-58
2023/01/05 00:09:07;;;;;;;13.47;2.37;;;9.60;99.90;;;;;;4956751;29;20232;-59
2023/01/05 00:22:46;;;;;;;14.30;3.10;;;9.50;99.90;;;;;;4956261;29;20235;-59
2023/01/05 00:25:16;;;;;;;12.97;2.40;;;9.50;99.90;;;;;;4956561;28;20579;-58
2023/01/05 00:27:47;;;;;;;10.40;2.03;;;9.50;99.90;;;;;;4956123;29;20709;-58
2023/01/05 00:30:17;;;;;;;12.33;2.30;;;9.40;99.90;;;;;;4954516;28;20227;-59
2023/01/05 00:32:45;;;;;;;10.20;2.20;;;9.40;99.90;;;;;;4956032;28;20239;-58
2023/01/05 00:35:16;;;;;;;12.27;2.20;;;9.50;99.90;;;;;;4955595;28;20242;-58
2023/01/05 00:37:45;;;;;;;13.00;2.53;;;9.40;99.90;;;;;;4953857;29;20239;-59
2023/01/05 00:40:14;;;;;;;10.17;2.30;;;9.40;99.90;;;;;;4956129;29;20586;-59
2023/01/05 00:42:42;;;;;;;9.73;2.57;;;9.40;99.90;;;;;;4955878;29;20274;-59
2023/01/05 00:45:13;;;;;;;10.03;2.40;;;9.40;99.90;;;;;;4955865;29;20215;-58
2023/01/05 00:47:41;;;;;;;13.13;2.70;;;9.40;99.90;;;;;;4955688;28;20223;-58
2023/01/05 00:50:13;;;;;;;11.53;2.23;;;9.40;99.90;;;;;;4956193;29;20227;-58
2023/01/05 00:52:42;;;;;;;9.73;2.00;;;9.40;99.90;;;;;;4954497;29;20233;-58
2023/01/05 00:55:11;;;;;;;9.87;2.20;;;9.40;99.90;;;;;;4956079;28;20239;-58
2023/01/05 00:57:39;;;;;;;11.80;2.50;;;9.40;99.90;;;;;;4955874;28;20240;-59
2023/01/05 01:00:13;;;;;;;11.20;2.17;;;9.40;99.90;;;;;;4946754;28;20230;-59
2023/01/05 01:02:41;;;;;;;14.00;2.33;;;9.40;99.90;;;;;;4954075;29;20606;-59
2023/01/05 01:05:10;;;;;;;8.13;1.73;;;9.40;99.90;;;;;;4948110;29;20310;-58
2023/01/05 01:07:38;;;;;;;7.67;1.93;;;9.40;99.90;;;;;;4955521;29;20315;-59
2023/01/05 01:10:09;;;;;;;10.30;2.10;;;9.40;99.90;;;;;;4955581;29;20223;-59
2023/01/05 01:12:38;;;;;;;7.90;1.60;;;9.40;99.90;;;;;;4955465;29;20235;-59
2023/01/05 01:15:07;;;;;;;12.33;2.20;;;9.40;99.90;;;;;;4953988;29;20702;-59
2023/01/05 01:17:35;;;;;;;8.27;1.90;;;9.30;99.90;;;;;;4954076;29;20231;-59
2023/01/05 01:20:04;;;;;;;10.10;2.07;;;9.30;99.90;;;;;;4954170;29;20239;-59
2023/01/05 01:22:32;;;;;;;9.03;2.43;;;9.30;99.90;;;;;;4955545;28;20235;-59
2023/01/05 01:25:01;;;;;;;10.63;2.43;;;9.30;99.90;;;;;;4955387;29;20219;-58
2023/01/05 01:27:32;;;;;;;11.23;2.07;;;9.30;99.90;;;;;;4955340;29;20392;-59
2023/01/05 01:30:01;;;;;;;7.33;2.30;;;9.30;99.90;;;;;;4955330;28;20266;-59
2023/01/05 01:32:29;;;;;;;9.97;1.87;;;9.30;99.90;;;;;;4954434;28;20239;-58
2023/01/05 01:34:57;;;;;;;9.43;2.50;;;9.30;99.90;;;;;;4953701;29;20231;-59
2023/01/05 01:37:25;;;;;;;8.27;1.90;;;9.30;99.90;;;;;;4953844;29;20235;-58
2023/01/05 01:39:55;;;;;;;8.27;2.00;;;9.30;99.90;;;;;;4953972;29;20234;-59
2023/01/05 01:42:24;;;;;;;8.57;2.03;;;9.30;99.90;;;;;;4953757;29;20715;-59
2023/01/05 01:44:57;;;;;;;8.33;2.03;;;9.30;99.90;;;;;;4953544;29;20591;-58
2023/01/05 01:47:41;;;;;;;7.60;1.83;;;9.30;99.90;;;;;;4942739;29;20240;-58
2023/01/05 01:50:15;;;;;;;9.90;2.60;;;9.30;99.90;;;;;;4953947;29;20274;-58
2023/01/05 01:52:45;;;;;;;11.27;2.23;;;9.30;99.90;;;;;;4954843;29;20222;-59
2023/01/05 01:55:14;;;;;;;9.87;2.37;;;9.30;99.90;;;;;;4953540;29;20239;-59
2023/01/05 01:57:45;;;;;;;10.90;2.10;;;9.20;99.90;;;;;;4953335;29;20262;-59
2023/01/05 02:00:15;;;;;;;10.37;2.03;;;9.20;99.90;;;;;;4945579;28;20229;-58
2023/01/05 02:02:48;;;;;;;8.90;2.07;;;9.20;99.90;;;;;;4954694;28;20231;-59
2023/01/05 02:05:21;;;;;;;7.57;1.80;;;9.20;99.90;;;;;;4954686;28;20216;-57
2023/01/05 02:07:49;;;;;;;9.07;1.50;;;9.20;99.90;;;;;;4954797;29;20246;-58
2023/01/05 02:10:32;;;;;;;10.00;2.03;;;9.20;99.90;;;;;;4954882;29;20234;-58
2023/01/05 02:13:10;;;;;;;7.17;1.70;;;9.20;99.90;;;;;;4954729;28;20604;-59
2023/01/05 02:15:48;;;;;;;10.00;1.70;;;9.20;99.90;;;;;;4954467;29;20244;-59
2023/01/05 02:18:37;;;;;;;5.60;1.10;;;9.20;99.90;;;;;;4954911;29;20227;-59
2023/01/05 02:21:21;;;;;;;6.47;1.30;;;9.20;99.90;;;;;;4954578;29;20223;-59
2023/01/05 02:24:27;;;;;;;9.17;1.13;;;9.10;99.90;;;;;;4953466;29;20631;-58
2023/01/05 02:27:36;;;;;;;4.67;1.23;;;9.10;99.90;;;;;;4954442;28;20282;-59
2023/01/05 02:30:47;;;;;;;3.40;1.40;;;9.00;99.90;;;;;;4938245;29;20235;-58
2023/01/05 02:33:26;;;;;;;6.23;1.20;;;9.00;99.90;;;;;;4947018;29;20642;-59
2023/01/05 02:36:01;;;;;;;6.23;1.40;;;9.00;99.90;;;;;;4954317;28;20590;-59
2023/01/05 02:38:37;;;;;;;5.10;1.00;;;9.00;99.90;;;;;;4952975;29;20231;-58
2023/01/05 02:41:10;;;;;;;5.47;1.67;;;9.00;99.90;;;;;;4954486;28;20833;-59
2023/01/05 02:43:38;;;;;;;4.07;1.23;;;9.00;99.90;;;;;;4953006;29;20279;-59
2023/01/05 02:46:07;;;;;;;8.33;1.30;;;9.00;99.90;;;;;;4952572;29;20231;-56
2023/01/05 02:48:36;;;;;;;3.07;0.80;;;9.00;99.90;;;;;;4954002;28;20281;-59
2023/01/05 02:51:10;;;;;;;5.03;1.23;;;9.00;99.90;;;;;;4954361;29;20635;-58
2023/01/05 02:53:41;;;;;;;8.03;1.83;;;9.00;99.90;;;;;;4952691;29;20235;-57
2023/01/05 02:56:13;;;;;;;3.53;0.97;;;9.00;99.90;;;;;;4953016;29;20329;-59
2023/01/05 02:58:45;;;;;;;4.80;1.40;;;9.00;99.90;;;;;;4953760;28;20729;-59
2023/01/05 03:01:19;;;;;;;6.70;1.30;;;9.00;99.90;;;;;;4948950;29;20680;-58
2023/01/05 03:03:53;;;;;;;5.00;1.47;;;9.00;99.90;;;;;;4956394;29;20313;-59
2023/01/05 03:06:29;;;;;;;7.33;1.60;;;9.00;99.90;;;;;;4956674;29;20727;-59
2023/01/05 03:09:00;;;;;;;4.13;1.30;;;8.90;99.90;;;;;;4957876;29;20234;-59
2023/01/05 03:14:30;;;;;;;5.50;1.37;;;8.90;99.90;;;;;;4956500;29;20251;-57
2023/01/05 03:17:04;;;;;;;3.93;1.03;;;8.90;99.90;;;;;;4952660;29;20236;-58
2023/01/05 03:19:38;;;;;;;4.27;1.00;;;8.90;99.90;;;;;;4937075;29;20228;-58
2023/01/05 03:36:38;;;;;;;1.43;0.60;;;8.70;99.90;;;;;;4936657;28;20231;-58
2023/01/05 03:39:08;;;;;;;1.67;0.60;;;8.60;99.90;;;;;;4936888;29;20239;-59
2023/01/05 03:41:39;;;;;;;2.83;0.50;;;8.60;99.90;;;;;;4941975;29;20706;-58
2023/01/05 03:44:08;;;;;;;4.50;0.60;;;8.60;99.90;;;;;;4956220;29;20251;-58
2023/01/05 03:46:39;;;;;;;3.40;0.53;;;8.50;99.90;;;;;;4954590;29;20230;-59
2023/01/05 03:49:10;;;;;;;1.10;0.50;;;8.50;99.90;;;;;;4950655;29;20227;-58
2023/01/05 03:51:39;;;;;;;1.00;0.50;;;8.40;99.90;;;;;;4956807;29;20240;-59
2023/01/05 03:54:10;;;;;;;3.40;0.60;;;8.40;99.90;;;;;;4957073;28;20219;-59
2023/01/05 03:56:40;;;;;;;2.47;0.53;;;8.50;99.90;;;;;;4955447;29;20687;-59
2023/01/05 03:59:08;;;;;;;3.10;0.47;;;8.40;99.90;;;;;;4956679;29;20235;-58
2023/01/05 04:01:38;;;;;;;2.83;0.70;;;8.40;99.90;;;;;;4954957;28;20242;-58
2023/01/05 04:04:10;;;;;;;3.67;0.70;;;8.40;99.90;;;;;;4944625;29;20573;-59
2023/01/05 04:06:39;;;;;;;3.17;0.50;;;8.40;99.90;;;;;;4936142;29;20224;-59
2023/01/05 04:09:09;;;;;;;6.70;0.93;;;8.30;99.90;;;;;;4936288;29;20751;-59
2023/01/05 04:11:39;;;;;;;2.23;0.57;;;8.30;99.90;;;;;;4935858;29;20284;-58
2023/01/05 04:14:08;;;;;;;2.10;0.60;;;8.30;99.90;;;;;;4936867;29;20224;-57
2023/01/05 04:16:36;;;;;;;3.97;0.70;;;8.30;99.90;;;;;;4956374;28;20235;-58
2023/01/05 04:19:15;;;;;;;1.90;0.50;;;8.30;99.90;;;;;;4955025;29;20314;-59
2023/01/05 04:21:44;;;;;;;4.30;0.80;;;8.30;99.90;;;;;;4954890;29;20370;-59
2023/01/05 04:24:13;;;;;;;2.70;0.77;;;8.30;99.90;;;;;;4956397;29;20710;-59
2023/01/05 04:26:44;;;;;;;2.50;0.97;;;8.30;99.90;;;;;;4955160;29;20318;-58
2023/01/05 04:29:13;;;;;;;4.77;0.60;;;8.20;99.90;;;;;;4956211;28;20224;-59
2023/01/05 04:31:43;;;;;;;2.27;0.70;;;8.20;99.90;;;;;;4954522;28;20730;-59
2023/01/05 04:34:15;;;;;;;1.67;0.67;;;8.20;99.90;;;;;;4952741;29;20231;-58
2023/01/05 04:36:46;;;;;;;4.77;0.90;;;8.20;99.90;;;;;;4954326;29;20234;-59
2023/01/05 04:39:16;;;;;;;3.37;0.70;;;8.20;99.90;;;;;;4954619;29;20227;-60
2023/01/05 04:41:45;;;;;;;3.03;0.70;;;8.20;99.90;;;;;;4953605;29;21278;-58
2023/01/05 04:44:13;;;;;;;3.57;0.70;;;8.20;99.90;;;;;;4949013;29;20275;-58
2023/01/05 04:46:42;;;;;;;3.90;0.80;;;8.20;99.90;;;;;;4954667;29;20233;-58
2023/01/05 04:49:12;;;;;;;4.50;0.60;;;8.20;99.90;;;;;;4954425;29;20239;-58
2023/01/05 04:51:42;;;;;;;4.97;0.80;;;8.20;99.90;;;;;;4951964;29;20224;-58
2023/01/05 04:54:13;;;;;;;3.33;0.80;;;8.20;99.90;;;;;;4954242;29;20342;-58
2023/01/05 04:56:42;;;;;;;4.27;0.80;;;8.20;99.90;;;;;;4954037;29;20243;-59
2023/01/05 04:59:10;;;;;;;5.07;1.20;;;8.20;99.90;;;;;;4953841;29;20693;-58
2023/01/05 05:01:39;;;;;;;2.57;0.80;;;8.20;99.90;;;;;;4953280;29;20630;-59
2023/01/05 05:04:10;;;;;;;5.00;0.80;;;8.20;99.90;;;;;;4951739;29;20234;-58
2023/01/05 05:06:39;;;;;;;3.97;1.10;;;8.10;99.90;;;;;;4953875;29;20310;-58
2023/01/05 05:09:09;;;;;;;5.33;0.90;;;8.10;99.90;;;;;;4955387;28;20243;-58
2023/01/05 05:11:39;;;;;;;6.47;1.17;;;8.10;99.90;;;;;;4953631;29;20239;-59
2023/01/05 05:14:08;;;;;;;3.00;1.00;;;8.10;99.90;;;;;;4953742;29;20223;-58
2023/01/05 05:16:40;;;;;;;6.77;1.00;;;8.20;99.90;;;;;;4953367;29;20255;-58
2023/01/05 05:19:09;;;;;;;4.67;1.10;;;8.20;99.90;;;;;;4951252;29;20322;-58
2023/01/05 05:21:38;;;;;;;5.30;0.97;;;8.20;99.90;;;;;;4953106;28;20227;-59
2023/01/05 05:24:06;;;;;;;5.63;1.10;;;8.30;99.90;;;;;;4953635;29;20648;-58
2023/01/05 05:26:39;;;;;;;3.30;0.97;;;8.30;99.90;;;;;;4953522;29;20222;-58
2023/01/05 05:29:07;;;;;;;6.60;1.47;;;8.30;99.90;;;;;;4954909;28;20586;-59
2023/01/05 05:31:35;;;;;;;6.13;1.27;;;8.30;99.90;;;;;;4954483;28;20245;-58
2023/01/05 05:34:04;;;;;;;5.67;1.20;;;8.30;99.90;;;;;;4946691;29;20897;-58
2023/01/05 05:36:33;;;;;;;5.37;1.33;;;8.30;99.90;;;;;;4954442;28;20227;-58
2023/01/05 05:39:01;;;;;;;9.07;1.33;;;8.30;99.90;;;;;;4954380;28;20231;-59
2023/01/05 05:41:29;;;;;;;5.97;1.20;;;8.30;99.90;;;;;;4954009;28;20230;-58
2023/01/05 05:43:59;;;;;;;5.87;1.27;;;8.30;99.90;;;;;;4952812;28;20238;-58
2023/01/05 05:46:28;;;;;;;6.10;1.23;;;8.30;99.90;;;;;;4954207;29;20234;-58
2023/01/05 05:48:57;;;;;;;7.43;1.50;;;8.40;99.90;;;;;;4954806;28;20246;-59
2023/01/05 05:51:26;;;;;;;9.87;1.83;;;8.40;99.90;;;;;;4954358;29;20233;-58
2023/01/05 05:53:54;;;;;;;9.33;1.30;;;8.30;99.90;;;;;;4954549;28;20234;-59
2023/01/05 05:56:22;;;;;;;9.00;1.80;;;8.30;99.90;;;;;;4955047;29;20235;-59
2023/01/05 05:58:50;;;;;;;6.87;1.20;;;8.30;99.90;;;;;;4954808;28;20564;-58
2023/01/05 06:01:29;;;;;;;6.57;1.37;;;8.30;99.90;;;;;;4953781;28;20246;-59
2023/01/05 06:03:57;;;;;;;8.40;1.47;;;8.30;99.90;;;;;;4954508;29;20239;-59
2023/01/05 06:06:25;;;;;;;8.13;1.90;;;8.30;99.90;;;;;;4954851;28;20709;-58
2023/01/05 06:08:53;;;;;;;8.27;1.33;;;8.30;99.90;;;;;;4954759;28;20238;-59
2023/01/05 06:11:22;;;;;;;6.13;1.30;;;8.30;99.90;;;;;;4954542;28;20258;-59
2023/01/05 06:13:50;;;;;;;7.47;1.60;;;8.20;99.90;;;;;;4954245;29;20227;-59
2023/01/05 06:16:18;;;;;;;10.47;1.53;;;8.20;99.90;;;;;;4954474;29;20247;-59
2023/01/05 06:18:47;;;;;;;9.37;1.63;;;8.20;99.90;;;;;;4954530;29;20599;-59
2023/01/05 06:21:15;;;;;;;8.57;1.40;;;8.20;99.90;;;;;;4954102;29;20234;-58
2023/01/05 06:23:43;;;;;;;12.03;1.87;;;8.20;99.90;;;;;;4954181;29;20219;-59
2023/01/05 06:26:11;;;;;;;8.70;1.57;;;8.20;99.90;;;;;;4954405;28;20250;-58
2023/01/05 06:28:39;;;;;;;8.80;1.33;;;8.20;99.90;;;;;;4951869;29;20231;-59
2023/01/05 06:31:07;;;;;;;7.10;1.50;;;8.30;99.90;;;;;;4954306;28;20250;-59
2023/01/05 06:33:35;;;;;;;9.37;1.50;;;8.30;99.90;;;;;;4955425;28;20237;-58
2023/01/05 06:36:05;;;;;;;10.67;1.70;;;8.30;99.90;;;;;;4958682;29;20785;-59
2023/01/05 06:38:33;;;;;;;8.43;1.70;;;8.30;99.90;;;;;;4958420;28;20237;-59
2023/01/05 06:41:01;;;;;;;10.90;2.03;;;8.30;99.90;;;;;;4958353;28;20615;-58
2023/01/05 06:43:30;;;;;;;11.07;1.87;;;8.30;99.90;;;;;;4957685;28;20318;-58
2023/01/05 06:45:58;;;;;;;9.70;2.53;;;8.30;99.90;;;;;;4958153;28;20227;-58
2023/01/05 06:48:26;;;;;;;10.30;1.70;;;8.30;99.90;;;;;;4957641;29;20746;-57
2023/01/05 06:50:54;;;;;;;10.80;2.30;;;8.20;99.90;;;;;;4958121;29;20238;-59
2023/01/05 06:53:23;;;;;;;9.50;1.73;;;8.20;99.90;;;;;;4958702;29;20231;-58
2023/01/05 06:55:51;;;;;;;11.93;2.23;;;8.20;99.90;;;;;;4958047;28;20590;-57
2023/01/05 06:58:19;;;;;;;12.00;2.40;;;8.20;99.90;;;;;;4957889;29;20235;-59
2023/01/05 07:00:47;;;;;;;12.57;2.00;;;8.10;99.90;;;;;;4955598;28;20251;-58
2023/01/05 07:03:15;;;;;;;8.87;1.80;;;8.10;99.90;;;;;;4955816;29;20235;-58
2023/01/05 07:05:43;;;;;;;10.27;2.40;;;8.10;99.90;;;;;;4955249;28;20753;-57
2023/01/05 07:08:12;;;;;;;11.27;1.87;;;8.10;99.90;;;;;;4953861;29;20220;-58
2023/01/05 07:10:41;;;;;;;9.70;1.77;;;8.10;99.90;;;;;;4956235;28;20239;-58
2023/01/05 07:13:09;;;;;;;11.60;1.80;;;8.10;99.90;;;;;;4953379;29;20239;-58
2023/01/05 07:15:37;;;;;;;10.70;2.10;;;8.10;99.90;;;;;;4956528;29;20599;-55
2023/01/05 07:18:05;;;;;;;10.23;1.80;;;8.10;99.90;;;;;;4956587;29;20302;-58
2023/01/05 07:20:33;;;;;;;11.53;2.23;;;8.00;99.90;;;;;;4956421;28;20235;-58
2023/01/05 07:23:01;;;;;;;10.27;1.40;;;8.00;99.90;;;;;;4956828;28;20294;-58
2023/01/05 07:25:31;;;;;;;14.47;2.00;;;8.00;99.90;;;;;;4955266;29;20231;-59
2023/01/05 07:28:01;;;;;;;10.73;1.90;;;7.90;99.90;;;;;;4952368;28;20232;-58
2023/01/05 07:30:29;;;;;;;11.53;1.90;;;7.90;99.90;;;;;;4951832;28;20754;-59
2023/01/05 07:32:58;;;;;;;8.27;1.70;;;7.90;99.90;;;;;;4956193;28;20574;-59
2023/01/05 07:35:27;;;;;;;8.97;1.37;;;7.90;99.90;;;;;;4956331;28;20646;-57
2023/01/05 07:37:56;;;;;;;17.33;2.07;;;7.90;99.90;;;;;;4955740;28;20229;-59
2023/01/05 07:40:24;;;;;;;11.97;2.33;;;7.90;99.90;;;;;;4956793;29;20247;-59
2023/01/05 07:42:52;;;;;;;13.10;2.40;;;7.90;99.90;;;;;;4956268;29;20227;-59
2023/01/05 07:45:22;;;;;;;14.77;2.20;;;7.80;99.90;;;;;;4950564;28;20256;-59
2023/01/05 07:47:51;;;;;;;10.50;1.87;;;7.90;99.90;;;;;;4956418;29;20255;-58
2023/01/05 07:50:19;;;;;;;13.57;2.57;;;7.80;99.90;;;;;;4954779;28;20583;-58
2023/01/05 07:52:48;;;;;;;13.43;2.00;;;7.90;99.90;;;;;;4955889;28;20683;-58
2023/01/05 07:55:16;;;;;;;14.07;2.50;;;7.90;99.90;;;;;;4955913;28;20227;-59
2023/01/05 07:57:45;;;;;;;21.20;2.63;;;7.90;99.90;;;;;;4955438;28;20704;-57
2023/01/05 08:00:14;;;;;;;16.17;2.43;;;7.90;99.90;;;;;;4955677;28;20235;-58
2023/01/05 08:02:44;;;;;;;14.80;2.27;;;7.90;99.90;;;;;;4955104;29;20599;-58
2023/01/05 08:05:13;;;;;;;6.93;1.60;;;8.00;99.90;;;;;;4953715;29;20247;-58
2023/01/05 08:07:41;;;;;;;10.97;2.43;;;8.00;99.90;;;;;;4955315;29;20310;-58
2023/01/05 08:10:29;;;;;;;9.80;1.60;;;8.00;99.90;;;;;;4950458;29;20227;-56
2023/01/05 08:15:47;;;;;;;11.30;1.90;;;8.00;99.90;;;;;;4954333;29;20312;-58
2023/01/05 08:18:20;;;;;;;12.83;2.33;;;8.00;99.90;;;;;;4955625;29;20231;-58
2023/01/05 08:20:52;;;;;;;13.93;1.80;;;8.10;99.90;;;;;;4954830;29;20235;-58
2023/01/05 08:23:21;;;;;;;11.47;2.30;;;8.10;99.90;;;;;;4953298;29;20560;-59
2023/01/05 08:25:53;;;;;;;11.43;2.10;;;8.10;99.90;;;;;;4954648;28;20231;-59
2023/01/05 08:28:22;;;;;;;9.77;2.07;;;8.10;99.90;;;;;;4955390;28;20234;-59
2023/01/05 08:30:50;;;;;;;12.77;2.17;;;8.10;99.90;;;;;;4953015;28;20741;-59
2023/01/05 08:33:19;;;;;;;17.13;2.70;;;8.10;99.90;;;;;;4955579;28;20227;-58
2023/01/05 08:35:47;;;;;;;16.00;2.27;;;8.10;99.90;;;;;;4955404;28;20250;-58
2023/01/05 08:38:15;;;;;;;13.67;2.70;;;8.10;99.90;;;;;;4952757;29;20224;-58
2023/01/05 08:40:43;;;;;;;16.30;2.57;;;8.20;99.90;;;;;;4955316;28;20235;-59
2023/01/05 08:43:11;;;;;;;16.20;2.10;;;8.20;99.90;;;;;;4954165;29;20236;-58
2023/01/05 08:45:39;;;;;;;11.53;2.57;;;8.20;99.90;;;;;;4955173;28;20228;-59
2023/01/05 08:48:09;;;;;;;15.80;2.27;;;8.20;99.90;;;;;;4955676;28;20583;-59
2023/01/05 08:50:38;;;;;;;17.93;2.50;;;8.20;99.90;;;;;;4955473;28;20679;-59
2023/01/05 08:53:06;;;;;;;16.43;2.27;;;8.20;99.90;;;;;;4955559;28;20325;-59
2023/01/05 08:55:36;;;;;;;15.23;2.10;;;8.30;99.90;;;;;;4954996;28;20278;-58
2023/01/05 08:58:06;;;;;;;14.03;2.67;;;8.30;99.90;;;;;;4954228;28;20238;-59
2023/01/05 09:00:34;;;;;;;18.73;3.03;;;8.30;99.90;;;;;;4954089;28;20725;-59
2023/01/05 09:03:02;;;;;;;13.20;2.03;;;8.20;99.90;;;;;;4955093;28;20278;-59
2023/01/05 09:05:31;;;;;;;14.40;2.17;;;8.20;99.90;;;;;;4953962;29;20232;-59
2023/01/05 09:08:01;;;;;;;14.50;2.40;;;8.20;99.90;;;;;;4954406;28;20231;-59
2023/01/05 09:10:29;;;;;;;11.70;2.03;;;8.20;99.90;;;;;;4954700;28;20315;-59
2023/01/05 09:12:57;;;;;;;17.90;2.40;;;8.20;99.90;;;;;;4955097;28;20219;-59
2023/01/05 09:15:25;;;;;;;14.83;2.03;;;8.30;99.90;;;;;;4954769;29;20234;-58
2023/01/05 09:17:53;;;;;;;11.07;2.37;;;8.30;99.90;;;;;;4952836;29;20227;-58
2023/01/05 09:20:21;;;;;;;13.37;2.23;;;8.30;99.90;;;;;;4954124;28;20259;-58
2023/01/05 09:22:49;;;;;;;14.20;2.77;;;8.30;99.90;;;;;;4952935;28;20258;-58
2023/01/05 09:25:18;;;;;;;10.80;2.27;;;8.40;99.90;;;;;;4948167;28;20387;-55
2023/01/05 09:27:46;;;;;;;14.77;2.40;;;8.40;99.90;;;;;;4946935;29;20231;-58
2023/01/05 09:30:16;;;;;;;17.33;2.43;;;8.40;99.90;;;;;;4947156;28;20227;-56
2023/01/05 09:32:44;;;;;;;11.03;2.10;;;8.40;99.90;;;;;;4949205;29;20231;-58
2023/01/05 09:35:12;;;;;;;12.80;2.10;;;8.40;99.90;;;;;;4944377;28;20286;-57
2023/01/05 09:37:40;;;;;;;12.70;2.20;;;8.40;99.90;;;;;;4945821;28;20233;-59
2023/01/05 09:40:11;;;;;;;12.23;2.50;;;8.50;99.90;;;;;;4945484;29;20738;-56
2023/01/05 09:42:45;;;;;;;12.50;1.97;;;8.50;99.90;;;;;;4947940;28;20234;-57
2023/01/05 09:45:21;;;;;;;17.33;2.13;;;8.50;99.90;;;;;;4947878;29;20258;-58
2023/01/05 09:47:51;;;;;;;11.90;2.63;;;8.50;99.90;;;;;;4946715;28;20219;-58
2023/01/05 09:50:21;;;;;;;12.90;2.43;;;8.50;99.90;;;;;;4946556;29;20226;-58
2023/01/05 09:52:51;;;;;;;10.03;2.20;;;8.60;99.90;;;;;;4946295;28;20224;-58
2023/01/05 09:55:21;;;;;;;13.53;2.10;;;8.60;99.90;;;;;;4945120;29;20234;-59
2023/01/05 09:57:54;;;;;;;12.10;3.10;;;8.60;99.90;;;;;;4947737;29;20230;-58
2023/01/05 10:00:23;;;;;;;15.60;2.50;;;8.60;99.90;;;;;;4946587;28;20304;-58
2023/01/05 10:02:55;;;;;;;14.07;2.90;;;8.70;99.90;;;;;;4948713;28;20229;-55
2023/01/05 10:05:25;;;;;;;16.30;2.37;;;8.70;99.90;;;;;;4948132;28;20250;-58
2023/01/05 10:07:58;;;;;;;14.17;2.77;;;8.70;99.90;;;;;;4947595;28;20235;-58
2023/01/05 10:10:41;;;;;;;14.33;2.50;;;8.70;99.90;;;;;;4947770;29;20215;-57
2023/01/05 10:13:23;;;;;;;11.70;2.67;;;8.70;99.90;;;;;;4947640;29;20310;-59
2023/01/05 10:15:55;;;;;;;13.27;2.40;;;8.60;99.90;;;;;;4947531;29;20234;-54
2023/01/05 10:18:26;;;;;;;15.07;2.67;;;8.60;99.90;;;;;;4947827;29;20323;-58
2023/01/05 10:21:05;;;;;;;16.23;2.37;;;8.60;99.90;;;;;;4951603;29;20583;-59
2023/01/05 10:23:53;;;;;;;12.87;2.57;;;8.60;99.90;;;;;;4951621;29;20235;-58
2023/01/05 10:26:26;;;;;;;17.40;3.00;;;8.60;99.90;;;;;;4952119;29;20223;-59
2023/01/05 10:29:00;;;;;;;14.00;2.47;;;8.70;99.90;;;;;;4953415;28;20322;-59
2023/01/05 10:31:37;;;;;;;18.80;2.60;;;8.80;99.90;;;;;;4953438;28;20693;-59
2023/01/05 10:34:14;;;;;;;11.67;2.50;;;8.80;99.90;;;;;;4953796;28;20247;-59
2023/01/05 10:36:57;;;;;;;16.90;2.43;;;8.80;99.90;;;;;;4950618;29;20315;-59
2023/01/05 10:40:00;;;;;;;16.60;2.63;;;8.80;99.90;;;;;;4952392;29;20228;-59
2023/01/05 10:42:42;;;;;;;16.80;2.57;;;8.80;99.90;;;;;;4949550;29;20255;-58
2023/01/05 10:45:14;;;;;;;20.53;2.93;;;8.80;99.90;;;;;;4942100;29;20243;-57
2023/01/05 10:47:43;;;;;;;21.17;3.43;;;8.80;99.90;;;;;;4940488;28;20236;-53
2023/01/05 10:50:28;;;;;;;13.37;2.50;;;8.80;99.90;;;;;;4940655;29;20275;-57
2023/01/05 10:52:58;;;;;;;14.47;2.50;;;8.80;99.90;;;;;;4939599;29;20235;-59
2023/01/05 10:55:28;;;;;;;15.17;2.13;;;8.80;99.90;;;;;;4940881;29;20242;-59
2023/01/05 10:57:56;;;;;;;12.77;2.23;;;8.80;99.90;;;;;;4940601;28;20227;-58
2023/01/05 11:00:40;;;;;;;16.10;2.40;;;8.90;99.90;;;;;;4939738;28;20231;-58
2023/01/05 11:03:14;;;;;;;14.73;2.27;;;8.90;99.90;;;;;;4939643;29;20240;-58
2023/01/05 11:05:45;;;;;;;16.30;2.67;;;8.80;99.90;;;;;;4940653;29;20238;-59
2023/01/05 11:08:16;;;;;;;16.30;2.43;;;8.90;99.90;;;;;;4939937;29;20254;-58
2023/01/05 11:10:51;;;;;;;15.60;2.67;;;8.90;99.90;;;;;;4938330;28;20216;-58
2023/01/05 11:13:31;;;;;;;19.33;2.83;;;8.90;99.90;;;;;;4938997;29;20231;-58
2023/01/05 11:16:07;;;;;;;12.63;2.13;;;8.90;99.90;;;;;;4939406;28;20242;-57
2023/01/05 11:18:41;;;;;;;14.33;2.87;;;9.00;99.90;;;;;;4941238;29;20654;-58
2023/01/05 11:21:15;;;;;;;13.27;2.30;;;9.00;99.90;;;;;;4942711;28;20238;-58
2023/01/05 11:23:44;;;;;;;16.43;2.63;;;9.10;99.90;;;;;;4942189;28;20756;-59
2023/01/05 11:26:28;;;;;;;12.17;2.40;;;9.20;99.90;;;;;;4944779;28;20233;-56
2023/01/05 11:29:02;;;;;;;12.40;2.17;;;9.30;99.90;;;;;;4944231;29;20246;-58
2023/01/05 11:31:36;;;;;;;11.27;2.33;;;9.30;99.90;;;;;;4943675;28;20255;-54
2023/01/05 11:34:09;;;;;;;14.60;2.60;;;9.20;99.90;;;;;;4941845;28;20231;-59
2023/01/05 11:36:38;;;;;;;12.23;2.57;;;9.20;99.90;;;;;;4944227;29;20306;-58
2023/01/05 11:39:17;;;;;;;12.23;2.03;;;9.10;99.90;;;;;;4944910;29;20231;-57
2023/01/05 11:41:45;;;;;;;13.30;2.23;;;9.10;99.90;;;;;;4942732;29;20277;-57
2023/01/05 11:44:21;;;;;;;13.20;2.37;;;9.00;99.90;;;;;;4942847;29;20243;-58
2023/01/05 11:46:50;;;;;;;18.03;2.83;;;9.00;99.90;;;;;;4943515;29;20242;-57
2023/01/05 11:49:19;;;;;;;16.60;2.70;;;9.00;99.90;;;;;;4944019;29;20281;-58
2023/01/05 11:51:47;;;;;;;10.43;1.87;;;8.90;99.90;;;;;;4942102;29;20767;-58
2023/01/05 11:54:33;;;;;;;9.00;1.80;;;9.00;99.90;;;;;;4942820;29;20671;-58
2023/01/05 11:57:16;;;;;;;14.33;2.13;;;9.00;99.90;;;;;;4944173;29;20250;-58
2023/01/05 11:59:45;;;;;;;12.47;2.90;;;9.10;99.90;;;;;;4943591;29;20313;-56
2023/01/05 12:02:49;;;;;;;7.03;1.60;;;9.20;99.90;;;;;;4940905;28;20244;-58
2023/01/05 12:05:36;;;;;;;11.50;2.60;;;9.20;99.90;;;;;;4943705;29;20681;-56
2023/01/05 12:08:12;;;;;;;13.80;2.03;;;9.30;99.90;;;;;;4945812;29;20239;-56
2023/01/05 12:10:59;;;;;;;13.53;2.30;;;9.30;99.90;;;;;;4946054;28;20239;-59
2023/01/05 12:13:58;;;;;;;14.57;2.63;;;9.30;99.90;;;;;;4943150;29;20326;-56
2023/01/05 12:16:38;;;;;;;17.07;2.47;;;9.30;99.90;;;;;;4944970;28;20254;-57
2023/01/05 12:19:28;;;;;;;14.97;2.83;;;9.20;99.90;;;;;;4944134;29;20243;-57
2023/01/05 12:22:15;;;;;;;13.67;2.20;;;9.20;99.90;;;;;;4943166;28;20236;-59
2023/01/05 12:25:04;;;;;;;12.50;1.73;;;9.20;99.90;;;;;;4942910;29;20243;-57
2023/01/05 12:27:47;;;;;;;22.57;2.40;;;9.20;99.90;;;;;;4942773;29;20765;-58
2023/01/05 12:30:28;;;;;;;15.50;2.13;;;9.20;99.90;;;;;;4943261;28;20643;-59
2023/01/05 12:34:00;;;;;;;15.50;2.50;;;9.20;99.90;;;;;;4941037;29;20267;-60
2023/01/05 12:36:49;;;;;;;14.37;2.30;;;9.20;99.90;;;;;;4934503;28;20290;-59
2023/01/05 12:39:44;;;;;;;14.03;2.67;;;9.20;99.90;;;;;;4943229;29;20250;-57
2023/01/05 12:42:28;;;;;;;11.07;2.10;;;9.10;99.90;;;;;;4943715;28;20726;-58
2023/01/05 12:45:29;;;;;;;14.43;2.83;;;9.10;99.90;;;;;;4945571;29;20223;-58
2023/01/05 12:48:03;;;;;;;9.57;1.70;;;9.00;99.90;;;;;;4942604;29;20231;-58
2023/01/05 12:50:35;;;;;;;12.47;2.60;;;9.00;99.90;;;;;;4942790;28;20249;-58
2023/01/05 12:53:16;;;;;;;12.57;2.40;;;8.90;99.90;;;;;;4941533;28;20231;-57
2023/01/05 12:55:48;;;;;;;13.57;2.20;;;8.90;99.90;;;;;;4942421;29;20235;-58
2023/01/05 12:58:24;;;;;;;11.40;2.33;;;8.80;99.90;;;;;;4942524;28;20321;-58
2023/01/05 13:00:56;;;;;;;12.40;2.37;;;8.80;99.90;;;;;;4940971;28;20250;-58
2023/01/05 13:03:30;;;;;;;13.20;2.43;;;8.90;99.90;;;;;;4939483;28;20266;-58
2023/01/05 13:06:04;;;;;;;14.83;2.33;;;8.90;99.90;;;;;;4942594;29;20247;-54
2023/01/05 13:08:40;;;;;;;12.10;2.20;;;8.80;99.90;;;;;;4944429;28;20270;-56
2023/01/05 13:11:17;;;;;;;13.90;2.60;;;8.80;99.90;;;;;;4944642;29;20286;-56
2023/01/05 13:13:49;;;;;;;15.57;2.20;;;8.80;99.90;;;;;;4940022;28;21253;-58
2023/01/05 13:16:20;;;;;;;9.43;2.10;;;8.90;99.90;;;;;;4943655;29;20238;-57
2023/01/05 13:18:53;;;;;;;20.30;3.27;;;8.90;99.90;;;;;;4942460;29;20326;-56
2023/01/05 13:21:23;;;;;;;15.30;2.90;;;8.90;99.90;;;;;;4943014;29;20334;-55
2023/01/05 13:23:57;;;;;;;16.37;2.40;;;8.80;99.90;;;;;;4941799;29;21035;-58
2023/01/05 13:26:25;;;;;;;14.20;2.43;;;8.70;99.90;;;;;;4943385;29;20245;-58
2023/01/05 13:28:55;;;;;;;13.00;2.03;;;8.80;99.90;;;;;;4943093;29;20342;-53
2023/01/05 13:31:41;;;;;;;18.13;2.50;;;8.80;99.90;;;;;;4943142;28;20723;-55
2023/01/05 13:34:33;;;;;;;11.37;2.27;;;8.90;99.90;;;;;;4942639;29;20560;-59
2023/01/05 13:37:21;;;;;;;17.17;2.50;;;9.00;99.90;;;;;;4940595;29;20246;-57
2023/01/05 13:40:14;;;;;;;15.20;2.00;;;9.00;99.90;;;;;;4942995;29;20239;-58
2023/01/05 13:43:00;;;;;;;12.90;2.83;;;9.10;99.90;;;;;;4939719;28;20297;-55
2023/01/05 13:45:46;;;;;;;15.80;2.30;;;9.20;99.90;;;;;;4942480;29;20235;-53
2023/01/05 13:48:35;;;;;;;13.13;2.13;;;9.20;99.90;;;;;;4942230;28;20242;-56
2023/01/05 13:51:37;;;;;;;12.83;2.73;;;9.20;99.90;;;;;;4942330;29;20313;-55